ワシントン/ダレス の空港の天気 - METARとTAF

ワシントン・ダレス国際空港 ( KIAD / IAD ) - アメリカ バージニア州ダレス
飛行場実況気象(Metar)
観測時間08/22 11:52 EDT (08/22 15:52 UTC)
風向・風速西 4m/s
視程10km以上
天気現象
少しの雲 雲底高度 1520m
全天の8割程度の雲 雲底高度 7620m
気温30.6℃
湿度51%
気圧1014.6hPa
METARKIAD 221552Z 28007KT 10SM FEW050 BKN250 31/19 A2997 RMK AO2 SLP146 T03060194
過去の天気等 Google飛行場航空写真 Wunderground天気予報

過去48時間のMETAR

飛行場予報(TAF)
発表時間: 8/22 10:34 EDT (8/22 14:34 UTC)
予報対象時間: 22日11時 EDT ~ 23日14時 EDT
風向・風速西北西 4m/s
視程10km以上
少しの雲 雲底高度 7620m
22日12時 EDT から
風向・風速西 4m/s
視程10km以上
全天の4割程度の雲 雲底高度 1520m
22日17時 EDT から
風向・風速南西 4m/s
視程10km以上
天気現象周辺で雷
全天の8割程度の積乱雲 雲底高度 1520m
22日22時 EDT から
風向・風速西 3m/s
視程10km以上
天気現象周辺でしゅう雨
全天の8割程度の雲 雲底高度 1370m
23日2時 EDT から
風向・風速北 3m/s
視程10km以上
全天の8割程度の雲 雲底高度 460m
23日13時 EDT から
風向・風速北 3m/s
視程10km以上
全天の8割程度の雲 雲底高度 1370m
KIAD 221434Z 2215/2318 29007KT P6SM FEW250
FM221600 28007KT P6SM SCT050
FM222100 22007KT P6SM VCTS BKN050CB
FM230200 26005KT P6SM VCSH BKN045
FM230600 35005KT P6SM BKN015
FM231700 35006KT P6SM BKN045